METAR Data
IDs: Format: Raw Decoded Include TAF

Data at: 2028 UTC 31 Jan 2023

KSAT 312022Z 36014G23KT 5SM -DZ BR OVC009 01/M01 A3023 RMK AO2 P0000 T00111006